Time;durP1;ratioP1;P1;durP2;ratioP2;P2;SDS_P1;SDS_P2;PMS_P1;PMS_P2;Temp;Humidity;BMP_temperature;BMP_pressure;BME280_temperature;BME280_humidity;BME280_pressure;Samples;Min_cycle;Max_cycle;Signal;HPM_P1;HPM_P2
2023/12/22 00:01:31;;;;;;;3.50;0.82;;;7.60;99.90;;;;;;4941751;28;20042;-77
2023/12/22 00:03:57;;;;;;;2.60;0.70;;;7.50;99.90;;;;;;4967831;28;20038;-77
2023/12/22 00:06:22;;;;;;;6.72;1.27;;;7.50;99.90;;;;;;4998079;28;20119;-77
2023/12/22 00:08:48;;;;;;;3.95;1.58;;;7.50;99.90;;;;;;4982457;28;20043;-77
2023/12/22 00:11:14;;;;;;;2.50;0.63;;;7.40;99.90;;;;;;4951365;28;20110;-77
2023/12/22 00:13:40;;;;;;;11.85;1.05;;;7.40;99.90;;;;;;4967084;28;20042;-77
2023/12/22 00:16:06;;;;;;;12.68;0.93;;;7.40;99.90;;;;;;4961800;28;20593;-77
2023/12/22 00:18:31;;;;;;;5.10;1.15;;;7.30;99.90;;;;;;4964575;28;20050;-77
2023/12/22 00:20:57;;;;;;;2.40;0.85;;;7.30;99.90;;;;;;4963921;28;20114;-77
2023/12/22 00:23:23;;;;;;;5.97;1.90;;;7.30;99.90;;;;;;4963245;28;20046;-77
2023/12/22 00:25:49;;;;;;;10.35;1.17;;;7.30;99.90;;;;;;4963351;28;20034;-77
2023/12/22 00:28:14;;;;;;;2.90;0.85;;;7.20;99.90;;;;;;4966028;28;20055;-77
2023/12/22 00:30:40;;;;;;;2.95;1.10;;;7.20;99.90;;;;;;4958366;28;20169;-77
2023/12/22 00:33:06;;;;;;;7.50;0.43;;;7.20;99.90;;;;;;4961939;28;20034;-77
2023/12/22 00:35:32;;;;;;;7.07;2.30;;;7.20;99.90;;;;;;4981101;28;20035;-76
2023/12/22 00:37:58;;;;;;;2.72;0.40;;;7.20;99.90;;;;;;4965219;28;20043;-76
2023/12/22 00:40:24;;;;;;;10.50;1.05;;;7.20;99.90;;;;;;4961600;28;20050;-77
2023/12/22 00:42:50;;;;;;;0.75;0.32;;;7.20;99.90;;;;;;4981737;28;20098;-76
2023/12/22 00:45:15;;;;;;;0.52;0.32;;;7.10;99.90;;;;;;4945761;28;20034;-77
2023/12/22 00:47:41;;;;;;;3.08;0.60;;;7.10;99.90;;;;;;4961697;28;20034;-77
2023/12/22 00:50:08;;;;;;;2.38;0.75;;;7.00;99.90;;;;;;4959449;28;20756;-77
2023/12/22 00:52:33;;;;;;;2.95;0.60;;;7.00;99.90;;;;;;4999909;28;20086;-77
2023/12/22 00:54:59;;;;;;;3.75;0.20;;;6.90;99.90;;;;;;4976414;28;20075;-77
2023/12/22 00:57:25;;;;;;;0.95;0.28;;;6.90;99.90;;;;;;4955042;28;20518;-77
2023/12/22 00:59:51;;;;;;;2.97;0.52;;;6.90;99.90;;;;;;4991090;28;20074;-77
2023/12/22 01:02:17;;;;;;;3.67;1.08;;;6.80;99.90;;;;;;4979737;28;20129;-77
2023/12/22 01:04:44;;;;;;;0.68;0.13;;;6.90;99.90;;;;;;4978670;28;20043;-77
2023/12/22 01:07:10;;;;;;;7.07;0.80;;;7.00;99.90;;;;;;4995854;28;20082;-77
2023/12/22 01:09:39;;;;;;;5.68;0.70;;;7.00;99.90;;;;;;4992446;28;20031;-77
2023/12/22 01:12:06;;;;;;;1.95;0.55;;;7.00;99.90;;;;;;4966828;28;20051;-77
2023/12/22 01:14:32;;;;;;;7.07;1.20;;;7.00;99.90;;;;;;4980360;28;20090;-77
2023/12/22 01:17:00;;;;;;;0.32;0.30;;;7.00;99.90;;;;;;4982101;28;20126;-77
2023/12/22 01:19:26;;;;;;;10.18;0.65;;;7.10;99.90;;;;;;4945851;28;20586;-77
2023/12/22 01:21:52;;;;;;;8.02;1.45;;;7.10;99.90;;;;;;4968569;28;20043;-77
2023/12/22 01:24:17;;;;;;;3.13;0.70;;;7.20;99.90;;;;;;4962131;28;20055;-77
2023/12/22 01:26:43;;;;;;;5.40;1.00;;;7.20;99.90;;;;;;4960371;28;20039;-77
2023/12/22 01:29:09;;;;;;;1.80;0.68;;;7.20;99.90;;;;;;4963393;28;20145;-77
2023/12/22 01:31:35;;;;;;;2.47;0.77;;;7.20;99.90;;;;;;4953182;28;20065;-77
2023/12/22 01:34:01;;;;;;;4.35;0.65;;;7.30;99.90;;;;;;4962679;28;20062;-77
2023/12/22 01:36:26;;;;;;;5.10;0.75;;;7.30;99.90;;;;;;4963385;28;20039;-77
2023/12/22 01:38:52;;;;;;;2.13;0.43;;;7.30;99.90;;;;;;4964714;28;20043;-77
2023/12/22 01:41:18;;;;;;;0.90;0.30;;;7.20;99.90;;;;;;4961938;28;20065;-77
2023/12/22 01:43:44;;;;;;;3.67;1.20;;;7.20;99.90;;;;;;4973892;28;20663;-78
2023/12/22 01:46:11;;;;;;;1.33;0.70;;;7.20;99.90;;;;;;4992933;28;20114;-77
2023/12/22 01:48:37;;;;;;;3.70;0.52;;;7.10;99.90;;;;;;4997688;28;20031;-77
2023/12/22 01:51:05;;;;;;;1.45;0.20;;;7.10;99.90;;;;;;4955175;28;20403;-78
2023/12/22 01:53:32;;;;;;;4.28;1.20;;;7.10;99.90;;;;;;4962705;28;20043;-77
2023/12/22 01:56:00;;;;;;;10.75;1.60;;;7.00;99.90;;;;;;4993998;28;20075;-77
2023/12/22 01:58:27;;;;;;;1.35;0.28;;;7.10;99.90;;;;;;4967933;28;20073;-77
2023/12/22 02:00:53;;;;;;;9.68;1.02;;;7.10;99.90;;;;;;4972827;28;20066;-77
2023/12/22 02:03:19;;;;;;;2.70;1.33;;;7.00;99.90;;;;;;4960802;28;20039;-77
2023/12/22 02:05:46;;;;;;;4.22;1.27;;;7.10;99.90;;;;;;4948996;28;20051;-77
2023/12/22 02:08:12;;;;;;;1.27;0.50;;;7.00;99.90;;;;;;4984242;28;20042;-77
2023/12/22 02:10:38;;;;;;;1.90;0.75;;;7.00;99.90;;;;;;4995450;28;20510;-77
2023/12/22 02:13:09;;;;;;;3.15;0.43;;;6.90;99.90;;;;;;4967605;28;20093;-77
2023/12/22 02:15:35;;;;;;;2.10;0.55;;;7.00;99.90;;;;;;4945618;28;20142;-77
2023/12/22 02:18:26;;;;;;;5.35;0.70;;;6.90;99.90;;;;;;4962256;28;20043;-77
2023/12/22 02:20:53;;;;;;;2.88;0.75;;;6.90;99.90;;;;;;4982048;28;20094;-77
2023/12/22 02:23:19;;;;;;;3.20;0.73;;;6.90;99.90;;;;;;4995984;28;20034;-77
2023/12/22 02:25:44;;;;;;;1.35;0.63;;;6.80;99.90;;;;;;4961917;28;20376;-78
2023/12/22 02:28:17;;;;;;;4.07;1.02;;;6.80;99.90;;;;;;4973916;28;20547;-77
2023/12/22 02:31:08;;;;;;;8.15;1.08;;;6.80;99.90;;;;;;4965376;28;20043;-77
2023/12/22 02:33:36;;;;;;;1.08;0.60;;;6.80;99.90;;;;;;4966080;28;20459;-77
2023/12/22 02:36:08;;;;;;;7.72;1.23;;;6.90;99.90;;;;;;4961801;28;20472;-77
2023/12/22 02:38:35;;;;;;;2.35;0.38;;;6.90;99.90;;;;;;4965833;28;20106;-77
2023/12/22 02:41:01;;;;;;;0.30;0.30;;;6.90;99.90;;;;;;4962379;28;20043;-77
2023/12/22 02:43:28;;;;;;;3.03;0.80;;;7.00;99.90;;;;;;4965047;28;20070;-77
2023/12/22 02:45:53;;;;;;;3.33;0.10;;;7.00;99.90;;;;;;4976840;28;20043;-77
2023/12/22 02:48:19;;;;;;;1.55;0.60;;;7.00;99.90;;;;;;4980796;28;20038;-77
2023/12/22 02:50:45;;;;;;;1.95;0.45;;;7.10;99.90;;;;;;4955686;28;20054;-77
2023/12/22 02:53:10;;;;;;;2.10;0.30;;;7.30;99.90;;;;;;4996636;28;20043;-78
2023/12/22 02:55:36;;;;;;;2.40;0.40;;;7.30;99.90;;;;;;4967214;28;20101;-77
2023/12/22 02:58:02;;;;;;;7.05;0.55;;;7.40;99.90;;;;;;4971921;28;20125;-78
2023/12/22 03:00:27;;;;;;;0.20;0.10;;;7.40;99.90;;;;;;4963919;28;20065;-77
2023/12/22 03:02:53;;;;;;;0.00;0.00;;;7.40;99.90;;;;;;4950580;28;20050;-77
2023/12/22 03:05:19;;;;;;;3.77;0.30;;;7.40;99.90;;;;;;4975859;28;20065;-77
2023/12/22 03:07:45;;;;;;;1.10;0.17;;;7.40;99.90;;;;;;4964416;28;20560;-77
2023/12/22 03:10:10;;;;;;;2.00;0.32;;;7.40;99.90;;;;;;4998302;28;20046;-78
2023/12/22 03:12:36;;;;;;;0.00;0.00;;;7.30;99.90;;;;;;4982696;28;20505;-78
2023/12/22 03:15:02;;;;;;;1.88;0.52;;;7.20;99.90;;;;;;4950338;28;20106;-78
2023/12/22 03:17:28;;;;;;;4.40;0.45;;;7.20;99.90;;;;;;4954249;28;20037;-78
2023/12/22 03:19:54;;;;;;;0.30;0.20;;;7.00;99.90;;;;;;4982895;28;20157;-78
2023/12/22 03:22:19;;;;;;;1.95;0.30;;;7.00;99.90;;;;;;4979215;28;20043;-78
2023/12/22 03:24:45;;;;;;;0.65;0.00;;;6.90;99.90;;;;;;4971509;28;20035;-77
2023/12/22 03:27:15;;;;;;;0.00;0.00;;;6.90;99.90;;;;;;4970046;28;20034;-78
2023/12/22 03:29:42;;;;;;;0.15;0.08;;;6.80;99.90;;;;;;4979694;28;20139;-77
2023/12/22 03:32:08;;;;;;;1.55;0.47;;;6.70;99.90;;;;;;4965556;28;20804;-78
2023/12/22 03:34:33;;;;;;;0.47;0.00;;;6.60;99.90;;;;;;4991261;28;20118;-78
2023/12/22 03:36:59;;;;;;;0.98;0.10;;;6.60;99.90;;;;;;4968817;28;20121;-77
2023/12/22 03:39:25;;;;;;;1.23;0.30;;;6.50;99.90;;;;;;4985519;28;20043;-78
2023/12/22 03:41:50;;;;;;;0.00;0.00;;;6.50;99.90;;;;;;4982073;28;20097;-78
2023/12/22 03:44:16;;;;;;;1.05;0.15;;;6.50;99.90;;;;;;4954313;28;20046;-78
2023/12/22 03:46:42;;;;;;;3.22;1.17;;;6.40;99.90;;;;;;4969407;28;20109;-78
2023/12/22 03:49:08;;;;;;;0.35;0.15;;;6.50;99.90;;;;;;4965383;28;20039;-78
2023/12/22 03:51:34;;;;;;;1.73;0.10;;;6.40;99.90;;;;;;4964402;28;20027;-78
2023/12/22 03:54:00;;;;;;;0.22;0.10;;;6.40;99.90;;;;;;4993395;28;20083;-78
2023/12/22 03:56:25;;;;;;;0.40;0.10;;;6.40;99.90;;;;;;4997468;28;20476;-78
2023/12/22 03:58:51;;;;;;;0.20;0.13;;;6.40;99.90;;;;;;4961718;28;20050;-78
2023/12/22 04:01:17;;;;;;;1.35;0.43;;;6.40;99.90;;;;;;4965674;28;20051;-77
2023/12/22 04:03:43;;;;;;;0.55;0.05;;;6.40;99.90;;;;;;4991429;28;20562;-78
2023/12/22 04:06:08;;;;;;;0.00;0.00;;;6.40;99.90;;;;;;4959666;28;20043;-78
2023/12/22 04:08:34;;;;;;;0.35;0.30;;;6.40;99.90;;;;;;4948836;28;20586;-78
2023/12/22 04:11:00;;;;;;;1.30;0.30;;;6.40;99.90;;;;;;4958039;28;21615;-78
2023/12/22 04:13:25;;;;;;;11.75;1.40;;;6.40;99.90;;;;;;4984930;28;20078;-78
2023/12/22 04:15:51;;;;;;;1.60;0.45;;;6.50;99.90;;;;;;4953594;28;20061;-78
2023/12/22 04:18:17;;;;;;;1.13;0.28;;;6.50;99.90;;;;;;4962656;28;20042;-77
2023/12/22 04:20:42;;;;;;;21.63;1.67;;;6.50;99.90;;;;;;4961861;28;20035;-78
2023/12/22 04:23:08;;;;;;;4.75;1.27;;;6.60;99.90;;;;;;4950518;28;20043;-78
2023/12/22 04:25:34;;;;;;;1.65;0.82;;;6.60;99.90;;;;;;4953889;28;20058;-78
2023/12/22 04:27:59;;;;;;;2.92;1.38;;;6.60;99.90;;;;;;4962549;28;20044;-77
2023/12/22 04:30:27;;;;;;;5.15;0.30;;;6.60;99.90;;;;;;4983558;28;20043;-78
2023/12/22 04:32:53;;;;;;;2.15;1.25;;;6.70;99.90;;;;;;4964554;28;20102;-78
2023/12/22 04:35:18;;;;;;;2.10;0.28;;;6.70;99.90;;;;;;4998280;28;20038;-78
2023/12/22 04:37:44;;;;;;;2.38;0.10;;;6.70;99.90;;;;;;4961169;28;20042;-78
2023/12/22 04:40:10;;;;;;;7.40;1.40;;;6.70;99.90;;;;;;4946080;28;20178;-78
2023/12/22 04:42:36;;;;;;;1.33;0.22;;;6.70;99.90;;;;;;4946315;28;20491;-78
2023/12/22 04:45:02;;;;;;;1.98;0.63;;;6.70;99.90;;;;;;4966916;28;20046;-78
2023/12/22 04:47:28;;;;;;;3.55;0.20;;;6.70;99.90;;;;;;4955073;28;20570;-78
2023/12/22 04:49:53;;;;;;;5.40;0.17;;;6.80;99.90;;;;;;4960393;28;20053;-76
2023/12/22 04:52:19;;;;;;;0.43;0.30;;;6.90;99.90;;;;;;4983808;28;20125;-77
2023/12/22 04:54:45;;;;;;;3.45;0.90;;;7.00;99.90;;;;;;4963729;28;20039;-77
2023/12/22 04:57:10;;;;;;;4.38;0.73;;;7.10;99.90;;;;;;4965245;28;20042;-77
2023/12/22 04:59:36;;;;;;;9.82;1.13;;;7.20;99.90;;;;;;4958017;28;20062;-77
2023/12/22 05:02:02;;;;;;;2.75;0.47;;;7.20;99.90;;;;;;4982598;28;20125;-77
2023/12/22 05:04:28;;;;;;;0.10;0.00;;;7.30;99.90;;;;;;4947580;28;20054;-77
2023/12/22 05:06:53;;;;;;;9.43;1.55;;;7.30;99.90;;;;;;4995198;28;20036;-78
2023/12/22 05:09:19;;;;;;;0.63;0.43;;;7.40;99.90;;;;;;4960819;28;20043;-76
2023/12/22 05:11:45;;;;;;;1.77;0.28;;;7.30;99.90;;;;;;5000138;28;20098;-78
2023/12/22 05:14:11;;;;;;;7.72;0.35;;;7.30;99.90;;;;;;4977115;28;20445;-78
2023/12/22 05:16:36;;;;;;;0.80;0.43;;;7.40;99.90;;;;;;4963542;28;20083;-78
2023/12/22 05:19:02;;;;;;;0.85;0.20;;;7.40;99.90;;;;;;4939960;28;20043;-78
2023/12/22 05:21:28;;;;;;;1.45;0.77;;;7.30;99.90;;;;;;4964861;28;20759;-78
2023/12/22 05:23:54;;;;;;;1.02;0.40;;;7.20;99.90;;;;;;4948315;28;20039;-77
2023/12/22 05:26:20;;;;;;;3.83;0.73;;;7.30;99.90;;;;;;4944384;28;20054;-78
2023/12/22 05:28:46;;;;;;;15.95;0.50;;;7.40;99.90;;;;;;4962145;28;20039;-78
2023/12/22 05:31:12;;;;;;;0.70;0.47;;;7.40;99.90;;;;;;4963513;28;20037;-78
2023/12/22 05:33:38;;;;;;;1.23;0.70;;;7.30;99.90;;;;;;4963704;28;20032;-78
2023/12/22 05:36:04;;;;;;;8.02;1.02;;;7.40;99.90;;;;;;4991004;28;20052;-77
2023/12/22 05:38:30;;;;;;;9.98;0.63;;;7.50;99.90;;;;;;4953795;28;20081;-78
2023/12/22 05:40:56;;;;;;;6.45;0.65;;;7.50;99.90;;;;;;4966237;28;20077;-77
2023/12/22 05:43:22;;;;;;;4.45;0.93;;;7.50;99.90;;;;;;4963079;28;20078;-77
2023/12/22 05:45:48;;;;;;;6.05;0.93;;;7.60;99.90;;;;;;4946770;28;20039;-78
2023/12/22 05:48:13;;;;;;;2.78;0.30;;;7.50;99.90;;;;;;4962095;28;20043;-78
2023/12/22 05:50:39;;;;;;;6.65;1.48;;;7.50;99.90;;;;;;4959001;28;20530;-78
2023/12/22 05:53:05;;;;;;;1.65;0.60;;;7.50;99.90;;;;;;4947767;28;20130;-78
2023/12/22 05:55:31;;;;;;;12.25;2.08;;;7.50;99.90;;;;;;4955807;28;20035;-78
2023/12/22 05:57:56;;;;;;;4.25;0.90;;;7.50;99.90;;;;;;4969173;28;20077;-78
2023/12/22 06:00:22;;;;;;;9.27;1.10;;;7.50;99.90;;;;;;4964433;28;20067;-78
2023/12/22 06:02:48;;;;;;;4.70;0.25;;;7.60;99.90;;;;;;4962663;28;20672;-78
2023/12/22 06:05:13;;;;;;;1.13;0.68;;;7.60;99.90;;;;;;4962785;28;21067;-78
2023/12/22 06:07:40;;;;;;;1.15;0.63;;;7.60;99.90;;;;;;4983545;28;20122;-78
2023/12/22 06:10:09;;;;;;;0.63;0.20;;;7.50;99.90;;;;;;4977312;28;20483;-78
2023/12/22 06:12:35;;;;;;;4.30;0.40;;;7.50;99.90;;;;;;4948649;28;20034;-78
2023/12/22 06:15:01;;;;;;;3.13;0.40;;;7.60;99.90;;;;;;4947421;28;20049;-78
2023/12/22 06:17:26;;;;;;;1.95;0.30;;;7.60;99.90;;;;;;4973097;28;20042;-78
2023/12/22 06:19:52;;;;;;;12.63;1.45;;;7.50;99.90;;;;;;4964270;28;20472;-78
2023/12/22 06:22:18;;;;;;;15.85;3.28;;;7.60;99.90;;;;;;4966483;28;20035;-78
2023/12/22 06:24:44;;;;;;;6.80;0.85;;;7.60;99.90;;;;;;4965404;28;20043;-78
2023/12/22 06:27:10;;;;;;;0.55;0.20;;;7.60;99.90;;;;;;4967093;28;20062;-78
2023/12/22 06:29:36;;;;;;;0.20;0.20;;;7.60;99.90;;;;;;4970496;28;20043;-78
2023/12/22 06:32:02;;;;;;;4.03;0.73;;;7.60;99.90;;;;;;4951566;28;20049;-78
2023/12/22 06:34:27;;;;;;;1.80;0.55;;;7.60;99.90;;;;;;4978868;28;20627;-78
2023/12/22 06:36:53;;;;;;;6.95;0.98;;;7.60;99.90;;;;;;4964271;28;20043;-78
2023/12/22 06:39:19;;;;;;;1.55;0.60;;;7.70;99.90;;;;;;4968837;28;20110;-78
2023/12/22 06:41:45;;;;;;;10.90;1.33;;;7.60;99.90;;;;;;4998415;28;20074;-78
2023/12/22 06:44:11;;;;;;;4.97;0.55;;;7.60;99.90;;;;;;5007136;28;20082;-78
2023/12/22 06:46:37;;;;;;;3.45;0.88;;;7.60;99.90;;;;;;4996920;28;20039;-78
2023/12/22 06:49:03;;;;;;;2.08;0.32;;;7.60;99.90;;;;;;4998696;28;20061;-78
2023/12/22 06:51:31;;;;;;;11.35;1.13;;;7.60;99.90;;;;;;4995843;28;20394;-78
2023/12/22 06:53:57;;;;;;;5.43;0.75;;;7.60;99.90;;;;;;4999712;28;20789;-77
2023/12/22 06:56:25;;;;;;;1.40;0.52;;;7.60;99.90;;;;;;4995387;28;20039;-77
2023/12/22 06:58:53;;;;;;;1.35;0.35;;;7.60;99.90;;;;;;4969908;28;20038;-77
2023/12/22 07:01:33;;;;;;;0.65;0.25;;;7.70;99.90;;;;;;4954341;28;20130;-78
2023/12/22 07:04:02;;;;;;;0.95;0.65;;;7.70;99.90;;;;;;5000080;28;20082;-78
2023/12/22 07:06:33;;;;;;;4.72;0.98;;;7.70;99.90;;;;;;4960210;28;20046;-78
2023/12/22 07:09:14;;;;;;;1.35;0.13;;;7.70;99.90;;;;;;4966122;28;20113;-78
2023/12/22 07:11:58;;;;;;;2.95;0.20;;;7.70;99.90;;;;;;4996550;28;20086;-78
2023/12/22 07:14:24;;;;;;;11.52;1.23;;;7.70;99.90;;;;;;4953914;28;20372;-78
2023/12/22 07:16:50;;;;;;;3.88;0.80;;;7.80;99.90;;;;;;4999496;28;20050;-78
2023/12/22 07:19:16;;;;;;;1.35;0.10;;;7.70;99.90;;;;;;4967740;28;20082;-78
2023/12/22 07:21:42;;;;;;;0.52;0.20;;;7.70;99.90;;;;;;4945586;28;20035;-78
2023/12/22 07:24:07;;;;;;;4.57;0.50;;;7.60;99.90;;;;;;4986496;28;20101;-78
2023/12/22 07:26:33;;;;;;;3.22;0.50;;;7.60;99.90;;;;;;4964499;28;20047;-78
2023/12/22 07:28:59;;;;;;;3.63;0.35;;;7.60;99.90;;;;;;4992650;28;20038;-78
2023/12/22 07:31:25;;;;;;;1.45;0.30;;;7.60;99.90;;;;;;4957515;28;20181;-78
2023/12/22 07:33:51;;;;;;;0.00;0.00;;;7.60;99.90;;;;;;4951348;28;20074;-78
2023/12/22 07:36:18;;;;;;;3.67;0.25;;;7.50;99.90;;;;;;4983387;28;20054;-78
2023/12/22 07:38:44;;;;;;;6.72;0.73;;;7.50;99.90;;;;;;4963709;28;20101;-78
2023/12/22 07:41:10;;;;;;;2.85;0.20;;;7.50;99.90;;;;;;4964667;28;20145;-78
2023/12/22 07:43:36;;;;;;;6.38;0.65;;;7.50;99.90;;;;;;4948242;28;20035;-78
2023/12/22 07:46:02;;;;;;;3.63;1.35;;;7.50;99.90;;;;;;4985670;28;20040;-78
2023/12/22 07:48:28;;;;;;;0.93;0.20;;;7.50;99.90;;;;;;4986073;28;20136;-78
2023/12/22 07:50:53;;;;;;;2.63;0.73;;;7.50;99.90;;;;;;4954253;28;20031;-78
2023/12/22 07:53:19;;;;;;;3.45;0.57;;;7.50;99.90;;;;;;4986743;28;20073;-78
2023/12/22 07:55:46;;;;;;;1.48;0.65;;;7.50;99.90;;;;;;4967998;28;20057;-78
2023/12/22 07:58:13;;;;;;;5.38;0.60;;;7.50;99.90;;;;;;4949668;28;20046;-78
2023/12/22 08:00:39;;;;;;;9.20;0.60;;;7.60;99.90;;;;;;4962925;28;20861;-78
2023/12/22 08:03:05;;;;;;;1.65;0.20;;;7.60;99.90;;;;;;4954070;28;20050;-78
2023/12/22 08:05:31;;;;;;;6.20;0.50;;;7.60;99.90;;;;;;4994065;28;20551;-78
2023/12/22 08:07:57;;;;;;;3.42;0.47;;;7.50;99.90;;;;;;4977535;28;20452;-78
2023/12/22 08:10:23;;;;;;;0.57;0.30;;;7.50;99.90;;;;;;4999611;28;20181;-78
2023/12/22 08:12:48;;;;;;;5.30;0.45;;;7.60;99.90;;;;;;4963559;28;20039;-78
2023/12/22 08:15:14;;;;;;;0.52;0.20;;;7.50;99.90;;;;;;4981798;28;20042;-78
2023/12/22 08:17:48;;;;;;;0.57;0.28;;;7.50;99.90;;;;;;4982300;28;20137;-78
2023/12/22 08:20:18;;;;;;;3.90;0.45;;;7.50;99.90;;;;;;4963466;28;20542;-78
2023/12/22 08:22:48;;;;;;;10.68;0.52;;;7.50;99.90;;;;;;4979287;28;20043;-78
2023/12/22 08:25:15;;;;;;;4.68;0.73;;;7.50;99.90;;;;;;4964639;28;20066;-78
2023/12/22 08:27:41;;;;;;;1.65;0.20;;;7.50;99.90;;;;;;4968060;28;20113;-78
2023/12/22 08:30:08;;;;;;;1.92;0.55;;;7.50;99.90;;;;;;4976717;28;20034;-77
2023/12/22 08:32:34;;;;;;;1.63;0.15;;;7.50;99.90;;;;;;4967802;28;20046;-77
2023/12/22 08:35:02;;;;;;;0.88;0.08;;;7.50;99.90;;;;;;4941348;28;20047;-77
2023/12/22 08:37:28;;;;;;;7.32;0.75;;;7.50;99.90;;;;;;4964600;28;20045;-76
2023/12/22 08:39:54;;;;;;;3.70;0.50;;;7.50;99.90;;;;;;4952105;28;20487;-76
2023/12/22 08:42:19;;;;;;;6.10;0.43;;;7.50;99.90;;;;;;4964597;28;20050;-76
2023/12/22 08:44:45;;;;;;;3.50;0.10;;;7.40;99.90;;;;;;4977387;28;20409;-76
2023/12/22 08:47:11;;;;;;;1.95;0.32;;;7.50;99.90;;;;;;4960700;28;20130;-76
2023/12/22 08:49:37;;;;;;;3.10;0.52;;;7.50;99.90;;;;;;4969676;28;20050;-76
2023/12/22 08:52:03;;;;;;;0.10;0.10;;;7.50;99.90;;;;;;4962828;28;20035;-76
2023/12/22 08:54:30;;;;;;;0.00;0.00;;;7.50;99.90;;;;;;4991883;28;20035;-76
2023/12/22 08:56:56;;;;;;;4.10;0.10;;;7.60;99.90;;;;;;4956028;28;20061;-76
2023/12/22 08:59:21;;;;;;;0.70;0.10;;;7.60;99.90;;;;;;4953688;28;20508;-76
2023/12/22 09:01:47;;;;;;;0.20;0.10;;;7.60;99.90;;;;;;4978985;28;20088;-77
2023/12/22 09:04:13;;;;;;;0.00;0.00;;;7.60;99.90;;;;;;4982830;28;20047;-77
2023/12/22 09:06:39;;;;;;;0.10;0.03;;;7.60;99.90;;;;;;4977594;28;20050;-77
2023/12/22 09:09:06;;;;;;;1.45;0.38;;;7.60;99.90;;;;;;4973742;28;20050;-77
2023/12/22 09:11:32;;;;;;;1.27;0.35;;;7.60;99.90;;;;;;4958641;28;20377;-77
2023/12/22 09:13:58;;;;;;;0.93;0.52;;;7.70;99.90;;;;;;4964353;28;20077;-77
2023/12/22 09:16:25;;;;;;;3.40;0.32;;;7.80;99.90;;;;;;4987805;28;20503;-77
2023/12/22 09:18:51;;;;;;;0.22;0.17;;;7.80;99.90;;;;;;4969759;28;20130;-77
2023/12/22 09:21:17;;;;;;;0.17;0.00;;;7.80;99.90;;;;;;4993614;28;20042;-77
2023/12/22 09:23:47;;;;;;;0.52;0.20;;;7.90;99.90;;;;;;4988477;28;20082;-77
2023/12/22 09:26:13;;;;;;;2.60;0.35;;;8.00;99.90;;;;;;4986161;28;20133;-77
2023/12/22 09:28:40;;;;;;;0.75;0.32;;;8.00;99.90;;;;;;4950392;28;20267;-77
2023/12/22 09:31:07;;;;;;;0.47;0.40;;;8.00;99.90;;;;;;4963509;28;20038;-77
2023/12/22 09:33:33;;;;;;;1.02;0.20;;;7.90;99.90;;;;;;4949709;28;20043;-77
2023/12/22 09:35:59;;;;;;;1.25;0.08;;;7.90;99.90;;;;;;4993105;28;20168;-77
2023/12/22 09:38:24;;;;;;;1.20;0.10;;;7.90;99.90;;;;;;4999399;28;20046;-77
2023/12/22 09:40:50;;;;;;;0.55;0.20;;;7.90;99.90;;;;;;4962684;28;20086;-77
2023/12/22 09:43:18;;;;;;;0.00;0.00;;;7.80;99.90;;;;;;4948136;28;20547;-77
2023/12/22 09:45:46;;;;;;;0.10;0.10;;;7.80;99.90;;;;;;4953454;28;20058;-76
2023/12/22 09:48:17;;;;;;;0.45;0.08;;;7.90;99.90;;;;;;4963694;28;20034;-77
2023/12/22 09:50:46;;;;;;;0.30;0.17;;;7.80;99.90;;;;;;4961922;28;20149;-77
2023/12/22 09:53:15;;;;;;;4.75;0.32;;;7.80;99.90;;;;;;4999031;28;20108;-77
2023/12/22 09:55:45;;;;;;;0.20;0.05;;;7.90;99.90;;;;;;4953878;28;20039;-77
2023/12/22 09:58:14;;;;;;;3.95;0.10;;;7.90;99.90;;;;;;4990622;28;20560;-77
2023/12/22 10:00:40;;;;;;;2.13;0.30;;;7.90;99.90;;;;;;4956352;28;20050;-77
2023/12/22 10:03:07;;;;;;;1.02;0.20;;;7.90;99.90;;;;;;4945115;28;20487;-76
2023/12/22 10:05:33;;;;;;;0.20;0.20;;;7.90;99.90;;;;;;5000198;28;20039;-76
2023/12/22 10:08:01;;;;;;;0.05;0.00;;;7.80;99.90;;;;;;4958148;28;20540;-77
2023/12/22 10:10:30;;;;;;;5.70;0.40;;;7.80;99.90;;;;;;4992493;28;20456;-77
2023/12/22 10:12:58;;;;;;;3.42;0.10;;;7.80;99.90;;;;;;4989283;28;20079;-76
2023/12/22 10:15:24;;;;;;;6.90;0.73;;;7.80;99.90;;;;;;4998689;28;20126;-77
2023/12/22 10:17:51;;;;;;;0.40;0.20;;;7.80;99.90;;;;;;4991769;28;20125;-77
2023/12/22 10:20:17;;;;;;;0.13;0.00;;;7.80;99.90;;;;;;4965444;28;20043;-77
2023/12/22 10:22:43;;;;;;;0.80;0.17;;;7.80;99.90;;;;;;4994964;28;20448;-77
2023/12/22 10:25:09;;;;;;;9.55;1.85;;;7.80;99.90;;;;;;4993082;28;20051;-77
2023/12/22 10:27:37;;;;;;;1.63;0.20;;;7.80;99.90;;;;;;4960905;28;20497;-77
2023/12/22 10:30:04;;;;;;;1.08;0.57;;;7.80;99.90;;;;;;4991795;28;20039;-77
2023/12/22 10:32:29;;;;;;;1.48;0.22;;;7.80;99.90;;;;;;4946006;28;20043;-77
2023/12/22 10:34:58;;;;;;;3.70;0.68;;;7.80;99.90;;;;;;4993343;28;20042;-77
2023/12/22 10:37:24;;;;;;;0.85;0.32;;;7.80;99.90;;;;;;4994819;28;20051;-77
2023/12/22 10:39:54;;;;;;;2.55;0.70;;;7.70;99.90;;;;;;4958488;28;20050;-77
2023/12/22 10:42:20;;;;;;;2.63;0.30;;;7.70;99.90;;;;;;4961468;28;20054;-77
2023/12/22 10:44:47;;;;;;;2.90;0.25;;;7.70;99.90;;;;;;4946412;28;20383;-77
2023/12/22 10:47:13;;;;;;;2.15;0.10;;;7.70;99.90;;;;;;4953221;28;20043;-77
2023/12/22 10:49:39;;;;;;;0.43;0.25;;;7.70;99.90;;;;;;4963039;28;20058;-77
2023/12/22 10:52:05;;;;;;;0.65;0.30;;;7.70;99.90;;;;;;4966272;28;20047;-77
2023/12/22 10:54:31;;;;;;;0.47;0.32;;;7.70;99.90;;;;;;4976483;28;20050;-77
2023/12/22 10:57:00;;;;;;;0.00;0.00;;;7.70;99.90;;;;;;4964185;28;20050;-77
2023/12/22 10:59:30;;;;;;;3.90;0.32;;;7.70;99.90;;;;;;4942404;28;20054;-77
2023/12/22 11:01:57;;;;;;;0.13;0.00;;;7.70;99.90;;;;;;4983198;28;20058;-77
2023/12/22 11:04:29;;;;;;;9.32;0.30;;;7.70;99.90;;;;;;4998891;28;20577;-77
2023/12/22 11:06:57;;;;;;;0.10;0.10;;;7.70;99.90;;;;;;4969936;28;20043;-77
2023/12/22 11:09:26;;;;;;;0.10;0.00;;;7.80;99.90;;;;;;4986302;28;20046;-77
2023/12/22 11:11:52;;;;;;;1.38;0.52;;;7.80;99.90;;;;;;4961882;28;20384;-77
2023/12/22 11:14:19;;;;;;;1.17;0.43;;;7.80;99.90;;;;;;4982651;28;20109;-78
2023/12/22 11:16:48;;;;;;;0.25;0.10;;;7.80;99.90;;;;;;4987892;28;20057;-77
2023/12/22 11:19:14;;;;;;;0.30;0.00;;;7.90;99.90;;;;;;4977106;28;20050;-77
2023/12/22 11:21:41;;;;;;;0.63;0.30;;;7.90;99.90;;;;;;4976540;28;20031;-77
2023/12/22 11:24:08;;;;;;;2.33;0.35;;;7.90;99.90;;;;;;5008277;28;20058;-77
2023/12/22 11:26:34;;;;;;;0.00;0.00;;;8.00;99.90;;;;;;4999099;28;20027;-75
2023/12/22 11:29:02;;;;;;;0.63;0.28;;;8.00;99.90;;;;;;5021255;28;20034;-77
2023/12/22 11:31:32;;;;;;;0.10;0.00;;;8.00;99.90;;;;;;4974678;28;20027;-76
2023/12/22 11:34:01;;;;;;;0.10;0.10;;;8.00;99.90;;;;;;5019702;28;20035;-77
2023/12/22 11:36:29;;;;;;;2.38;0.22;;;8.00;99.90;;;;;;4991123;28;20052;-76
2023/12/22 11:38:55;;;;;;;0.13;0.00;;;8.00;99.90;;;;;;4989261;28;20077;-76
2023/12/22 11:41:33;;;;;;;0.00;0.00;;;8.10;99.90;;;;;;5023014;28;20035;-77
2023/12/22 11:44:01;;;;;;;1.35;0.10;;;8.10;99.90;;;;;;4990544;28;20076;-76
2023/12/22 11:46:27;;;;;;;5.28;0.30;;;8.10;99.90;;;;;;5020252;28;20038;-77
2023/12/22 11:48:53;;;;;;;3.50;0.20;;;8.10;99.90;;;;;;4976923;28;20035;-77
2023/12/22 11:51:19;;;;;;;1.98;0.77;;;8.20;99.90;;;;;;5010800;28;20031;-76
2023/12/22 11:53:45;;;;;;;0.10;0.00;;;8.20;99.90;;;;;;5005409;28;20031;-77
2023/12/22 11:56:13;;;;;;;0.10;0.08;;;8.20;99.90;;;;;;4985294;28;20043;-76
2023/12/22 11:58:42;;;;;;;0.10;0.00;;;8.20;99.90;;;;;;5018612;28;20051;-77
2023/12/22 12:01:15;;;;;;;2.58;0.08;;;8.20;99.90;;;;;;4973784;28;20051;-77
2023/12/22 12:03:47;;;;;;;2.55;0.35;;;8.20;99.90;;;;;;5016919;28;20039;-76
2023/12/22 12:06:13;;;;;;;1.05;0.05;;;8.20;99.90;;;;;;4990595;28;20035;-77
2023/12/22 12:08:39;;;;;;;0.20;0.05;;;8.20;99.90;;;;;;4987625;28;20083;-77
2023/12/22 12:11:06;;;;;;;0.93;0.10;;;8.20;99.90;;;;;;4991903;28;20042;-75
2023/12/22 12:13:36;;;;;;;2.28;0.17;;;8.20;99.90;;;;;;4988274;28;20022;-77
2023/12/22 12:16:06;;;;;;;1.55;0.52;;;8.20;99.90;;;;;;4979493;28;20066;-78
2023/12/22 12:18:33;;;;;;;4.68;0.20;;;8.20;99.90;;;;;;5005598;28;20066;-77
2023/12/22 12:21:00;;;;;;;1.45;0.32;;;8.20;99.90;;;;;;4985719;28;20074;-75
2023/12/22 12:23:27;;;;;;;3.92;0.22;;;8.20;99.90;;;;;;5018878;28;20035;-75
2023/12/22 12:25:54;;;;;;;0.77;0.20;;;8.20;99.90;;;;;;5008111;28;20046;-77
2023/12/22 12:28:31;;;;;;;0.10;0.10;;;8.20;99.90;;;;;;5017883;28;20031;-77
2023/12/22 12:30:59;;;;;;;0.80;0.22;;;8.20;99.90;;;;;;5001717;28;20054;-75
2023/12/22 12:33:26;;;;;;;0.00;0.00;;;8.30;99.90;;;;;;5005334;28;20027;-77
2023/12/22 12:35:57;;;;;;;0.35;0.08;;;8.30;99.90;;;;;;5000764;28;20034;-77
2023/12/22 12:38:45;;;;;;;0.35;0.15;;;8.30;99.90;;;;;;4977645;28;20039;-77
2023/12/22 12:41:13;;;;;;;3.22;0.28;;;8.30;99.90;;;;;;5017546;28;20043;-77
2023/12/22 12:43:43;;;;;;;1.45;0.03;;;8.30;99.90;;;;;;4977662;28;20028;-76
2023/12/22 12:46:09;;;;;;;8.80;1.05;;;8.30;99.90;;;;;;5020426;28;20086;-77
2023/12/22 12:48:35;;;;;;;0.00;0.00;;;8.30;99.90;;;;;;5008585;28;20034;-74
2023/12/22 12:51:03;;;;;;;0.55;0.00;;;8.20;99.90;;;;;;5003253;28;20062;-77
2023/12/22 12:53:33;;;;;;;1.08;0.10;;;8.20;99.90;;;;;;4974637;28;20043;-75